sensor_id;sensor_type;location;lat;lon;timestamp;P1;durP1;ratioP1;P2;durP2;ratioP2
73779;SDS011;62093;37.614;15.072;2024-03-08T00:02:15;3.92;;;1.27;;
73779;SDS011;62093;37.614;15.072;2024-03-08T00:04:41;3.90;;;1.10;;
73779;SDS011;62093;37.614;15.072;2024-03-08T00:07:07;4.53;;;1.40;;
73779;SDS011;62093;37.614;15.072;2024-03-08T00:09:33;3.53;;;1.25;;
73779;SDS011;62093;37.614;15.072;2024-03-08T00:12:00;3.60;;;1.13;;
73779;SDS011;62093;37.614;15.072;2024-03-08T00:14:26;3.80;;;1.15;;
73779;SDS011;62093;37.614;15.072;2024-03-08T00:16:52;4.10;;;1.30;;
73779;SDS011;62093;37.614;15.072;2024-03-08T00:19:19;4.20;;;1.27;;
73779;SDS011;62093;37.614;15.072;2024-03-08T00:21:45;3.78;;;1.15;;
73779;SDS011;62093;37.614;15.072;2024-03-08T00:24:12;3.85;;;1.20;;
73779;SDS011;62093;37.614;15.072;2024-03-08T00:26:38;4.53;;;1.10;;
73779;SDS011;62093;37.614;15.072;2024-03-08T00:29:04;4.22;;;1.33;;
73779;SDS011;62093;37.614;15.072;2024-03-08T00:31:30;4.07;;;1.30;;
73779;SDS011;62093;37.614;15.072;2024-03-08T00:33:58;3.55;;;1.20;;
73779;SDS011;62093;37.614;15.072;2024-03-08T00:36:25;3.60;;;1.10;;
73779;SDS011;62093;37.614;15.072;2024-03-08T00:38:51;4.10;;;1.00;;
73779;SDS011;62093;37.614;15.072;2024-03-08T00:41:16;3.77;;;1.47;;
73779;SDS011;62093;37.614;15.072;2024-03-08T00:43:42;3.75;;;1.02;;
73779;SDS011;62093;37.614;15.072;2024-03-08T00:46:08;4.30;;;1.25;;
73779;SDS011;62093;37.614;15.072;2024-03-08T00:48:34;4.00;;;1.30;;
73779;SDS011;62093;37.614;15.072;2024-03-08T00:51:03;3.80;;;1.40;;
73779;SDS011;62093;37.614;15.072;2024-03-08T00:53:29;3.80;;;1.45;;
73779;SDS011;62093;37.614;15.072;2024-03-08T00:55:55;3.88;;;1.42;;
73779;SDS011;62093;37.614;15.072;2024-03-08T00:58:21;3.33;;;1.13;;
73779;SDS011;62093;37.614;15.072;2024-03-08T01:00:49;3.50;;;1.20;;
73779;SDS011;62093;37.614;15.072;2024-03-08T01:03:15;3.67;;;1.30;;
73779;SDS011;62093;37.614;15.072;2024-03-08T01:05:41;4.90;;;1.60;;
73779;SDS011;62093;37.614;15.072;2024-03-08T01:08:08;4.25;;;1.27;;
73779;SDS011;62093;37.614;15.072;2024-03-08T01:10:35;3.63;;;1.20;;
73779;SDS011;62093;37.614;15.072;2024-03-08T01:13:02;3.55;;;1.10;;
73779;SDS011;62093;37.614;15.072;2024-03-08T01:15:28;3.55;;;1.20;;
73779;SDS011;62093;37.614;15.072;2024-03-08T01:17:54;4.40;;;1.60;;
73779;SDS011;62093;37.614;15.072;2024-03-08T01:20:20;4.10;;;1.50;;
73779;SDS011;62093;37.614;15.072;2024-03-08T01:22:46;3.75;;;1.23;;
73779;SDS011;62093;37.614;15.072;2024-03-08T01:25:12;4.45;;;1.58;;
73779;SDS011;62093;37.614;15.072;2024-03-08T01:27:38;4.40;;;1.40;;
73779;SDS011;62093;37.614;15.072;2024-03-08T01:30:04;3.75;;;1.17;;
73779;SDS011;62093;37.614;15.072;2024-03-08T01:32:31;4.65;;;1.50;;
73779;SDS011;62093;37.614;15.072;2024-03-08T01:34:57;4.05;;;1.30;;
73779;SDS011;62093;37.614;15.072;2024-03-08T01:37:23;3.40;;;1.10;;
73779;SDS011;62093;37.614;15.072;2024-03-08T01:39:49;3.93;;;1.43;;
73779;SDS011;62093;37.614;15.072;2024-03-08T01:42:15;3.67;;;1.30;;
73779;SDS011;62093;37.614;15.072;2024-03-08T01:44:43;3.92;;;1.60;;
73779;SDS011;62093;37.614;15.072;2024-03-08T01:47:09;3.60;;;1.20;;
73779;SDS011;62093;37.614;15.072;2024-03-08T01:49:37;4.57;;;1.20;;
73779;SDS011;62093;37.614;15.072;2024-03-08T01:52:03;3.47;;;1.20;;
73779;SDS011;62093;37.614;15.072;2024-03-08T01:54:30;3.70;;;1.42;;
73779;SDS011;62093;37.614;15.072;2024-03-08T01:56:56;4.28;;;1.40;;
73779;SDS011;62093;37.614;15.072;2024-03-08T01:59:24;3.80;;;1.33;;
73779;SDS011;62093;37.614;15.072;2024-03-08T02:01:53;4.25;;;1.35;;
73779;SDS011;62093;37.614;15.072;2024-03-08T02:04:21;3.90;;;1.40;;
73779;SDS011;62093;37.614;15.072;2024-03-08T02:06:47;4.20;;;1.33;;
73779;SDS011;62093;37.614;15.072;2024-03-08T02:09:13;3.60;;;1.10;;
73779;SDS011;62093;37.614;15.072;2024-03-08T02:11:40;3.55;;;1.35;;
73779;SDS011;62093;37.614;15.072;2024-03-08T02:14:07;4.07;;;1.25;;
73779;SDS011;62093;37.614;15.072;2024-03-08T02:16:33;3.73;;;1.23;;
73779;SDS011;62093;37.614;15.072;2024-03-08T02:18:59;3.50;;;1.30;;
73779;SDS011;62093;37.614;15.072;2024-03-08T02:21:25;3.67;;;1.20;;
73779;SDS011;62093;37.614;15.072;2024-03-08T02:23:52;3.53;;;1.15;;
73779;SDS011;62093;37.614;15.072;2024-03-08T02:26:18;3.47;;;1.25;;
73779;SDS011;62093;37.614;15.072;2024-03-08T02:28:44;3.50;;;1.17;;
73779;SDS011;62093;37.614;15.072;2024-03-08T02:31:11;4.00;;;1.25;;
73779;SDS011;62093;37.614;15.072;2024-03-08T02:33:37;3.55;;;1.00;;
73779;SDS011;62093;37.614;15.072;2024-03-08T02:36:03;3.60;;;1.38;;
73779;SDS011;62093;37.614;15.072;2024-03-08T02:38:31;3.87;;;1.23;;
73779;SDS011;62093;37.614;15.072;2024-03-08T02:40:58;4.20;;;1.33;;
73779;SDS011;62093;37.614;15.072;2024-03-08T02:43:24;3.80;;;1.30;;
73779;SDS011;62093;37.614;15.072;2024-03-08T02:45:50;4.15;;;1.20;;
73779;SDS011;62093;37.614;15.072;2024-03-08T02:48:18;4.55;;;1.10;;
73779;SDS011;62093;37.614;15.072;2024-03-08T02:50:44;3.73;;;1.10;;
73779;SDS011;62093;37.614;15.072;2024-03-08T02:53:10;3.88;;;1.10;;
73779;SDS011;62093;37.614;15.072;2024-03-08T02:55:37;4.72;;;1.40;;
73779;SDS011;62093;37.614;15.072;2024-03-08T02:58:04;4.05;;;1.23;;
73779;SDS011;62093;37.614;15.072;2024-03-08T03:00:30;3.53;;;1.35;;
73779;SDS011;62093;37.614;15.072;2024-03-08T03:02:58;4.00;;;1.20;;
73779;SDS011;62093;37.614;15.072;2024-03-08T03:05:24;4.25;;;1.27;;
73779;SDS011;62093;37.614;15.072;2024-03-08T03:07:50;3.80;;;1.40;;
73779;SDS011;62093;37.614;15.072;2024-03-08T03:10:17;4.35;;;1.42;;
73779;SDS011;62093;37.614;15.072;2024-03-08T03:12:44;5.70;;;1.65;;
73779;SDS011;62093;37.614;15.072;2024-03-08T03:15:13;3.77;;;1.30;;
73779;SDS011;62093;37.614;15.072;2024-03-08T03:17:39;3.65;;;1.40;;
73779;SDS011;62093;37.614;15.072;2024-03-08T03:20:06;3.65;;;1.50;;
73779;SDS011;62093;37.614;15.072;2024-03-08T03:22:38;3.60;;;1.13;;
73779;SDS011;62093;37.614;15.072;2024-03-08T03:25:07;3.70;;;1.30;;
73779;SDS011;62093;37.614;15.072;2024-03-08T03:27:34;3.60;;;1.40;;
73779;SDS011;62093;37.614;15.072;2024-03-08T03:30:13;4.22;;;1.60;;
73779;SDS011;62093;37.614;15.072;2024-03-08T03:32:48;3.92;;;1.27;;
73779;SDS011;62093;37.614;15.072;2024-03-08T03:35:15;3.92;;;1.50;;
73779;SDS011;62093;37.614;15.072;2024-03-08T03:37:41;4.25;;;1.50;;
73779;SDS011;62093;37.614;15.072;2024-03-08T03:40:17;4.67;;;1.30;;
73779;SDS011;62093;37.614;15.072;2024-03-08T03:42:46;3.97;;;1.67;;
73779;SDS011;62093;37.614;15.072;2024-03-08T03:45:12;4.00;;;1.42;;
73779;SDS011;62093;37.614;15.072;2024-03-08T03:47:39;3.53;;;1.20;;
73779;SDS011;62093;37.614;15.072;2024-03-08T03:50:08;4.25;;;1.25;;
73779;SDS011;62093;37.614;15.072;2024-03-08T03:52:35;3.83;;;1.20;;
73779;SDS011;62093;37.614;15.072;2024-03-08T03:55:01;3.67;;;1.15;;
73779;SDS011;62093;37.614;15.072;2024-03-08T03:57:30;4.65;;;1.30;;
73779;SDS011;62093;37.614;15.072;2024-03-08T03:59:56;3.80;;;1.40;;
73779;SDS011;62093;37.614;15.072;2024-03-08T04:02:24;4.32;;;1.50;;
73779;SDS011;62093;37.614;15.072;2024-03-08T04:04:54;3.93;;;1.27;;
73779;SDS011;62093;37.614;15.072;2024-03-08T04:07:20;3.70;;;1.20;;
73779;SDS011;62093;37.614;15.072;2024-03-08T04:09:46;3.65;;;1.48;;
73779;SDS011;62093;37.614;15.072;2024-03-08T04:12:13;3.38;;;1.30;;
73779;SDS011;62093;37.614;15.072;2024-03-08T04:14:41;3.13;;;1.10;;
73779;SDS011;62093;37.614;15.072;2024-03-08T04:17:08;3.90;;;1.30;;
73779;SDS011;62093;37.614;15.072;2024-03-08T04:19:35;3.97;;;1.40;;
73779;SDS011;62093;37.614;15.072;2024-03-08T04:22:01;3.70;;;1.50;;
73779;SDS011;62093;37.614;15.072;2024-03-08T04:24:27;4.25;;;1.40;;
73779;SDS011;62093;37.614;15.072;2024-03-08T04:26:53;3.93;;;1.63;;
73779;SDS011;62093;37.614;15.072;2024-03-08T04:29:20;3.75;;;1.27;;
73779;SDS011;62093;37.614;15.072;2024-03-08T04:31:47;3.40;;;1.27;;
73779;SDS011;62093;37.614;15.072;2024-03-08T04:34:13;3.80;;;1.20;;
73779;SDS011;62093;37.614;15.072;2024-03-08T04:36:40;4.95;;;1.42;;
73779;SDS011;62093;37.614;15.072;2024-03-08T04:39:06;3.83;;;1.30;;
73779;SDS011;62093;37.614;15.072;2024-03-08T04:41:35;4.18;;;1.50;;
73779;SDS011;62093;37.614;15.072;2024-03-08T04:44:02;3.47;;;1.15;;
73779;SDS011;62093;37.614;15.072;2024-03-08T04:46:28;4.28;;;1.40;;
73779;SDS011;62093;37.614;15.072;2024-03-08T04:48:54;3.83;;;1.30;;
73779;SDS011;62093;37.614;15.072;2024-03-08T04:51:20;3.65;;;1.13;;
73779;SDS011;62093;37.614;15.072;2024-03-08T04:53:46;3.80;;;1.40;;
73779;SDS011;62093;37.614;15.072;2024-03-08T04:56:12;3.70;;;1.08;;
73779;SDS011;62093;37.614;15.072;2024-03-08T04:58:38;3.30;;;1.10;;
73779;SDS011;62093;37.614;15.072;2024-03-08T05:01:04;4.13;;;1.48;;
73779;SDS011;62093;37.614;15.072;2024-03-08T05:03:30;5.97;;;1.80;;
73779;SDS011;62093;37.614;15.072;2024-03-08T05:05:56;4.15;;;1.30;;
73779;SDS011;62093;37.614;15.072;2024-03-08T05:08:22;3.70;;;1.27;;
73779;SDS011;62093;37.614;15.072;2024-03-08T05:10:48;4.00;;;1.42;;
73779;SDS011;62093;37.614;15.072;2024-03-08T05:13:14;3.67;;;1.30;;
73779;SDS011;62093;37.614;15.072;2024-03-08T05:15:40;4.03;;;1.33;;
73779;SDS011;62093;37.614;15.072;2024-03-08T05:18:06;4.70;;;1.80;;
73779;SDS011;62093;37.614;15.072;2024-03-08T05:20:32;6.13;;;2.65;;
73779;SDS011;62093;37.614;15.072;2024-03-08T05:22:58;3.97;;;1.57;;
73779;SDS011;62093;37.614;15.072;2024-03-08T05:25:25;4.00;;;1.60;;
73779;SDS011;62093;37.614;15.072;2024-03-08T05:27:52;4.13;;;1.42;;
73779;SDS011;62093;37.614;15.072;2024-03-08T05:30:18;5.38;;;2.28;;
73779;SDS011;62093;37.614;15.072;2024-03-08T05:32:44;5.47;;;2.20;;
73779;SDS011;62093;37.614;15.072;2024-03-08T05:35:10;4.80;;;2.17;;
73779;SDS011;62093;37.614;15.072;2024-03-08T05:37:40;4.13;;;1.58;;
73779;SDS011;62093;37.614;15.072;2024-03-08T05:40:06;3.70;;;1.58;;
73779;SDS011;62093;37.614;15.072;2024-03-08T05:42:38;4.35;;;1.52;;
73779;SDS011;62093;37.614;15.072;2024-03-08T05:45:04;4.07;;;1.63;;
73779;SDS011;62093;37.614;15.072;2024-03-08T05:47:31;4.65;;;1.85;;
73779;SDS011;62093;37.614;15.072;2024-03-08T05:50:01;4.38;;;1.75;;
73779;SDS011;62093;37.614;15.072;2024-03-08T05:52:28;4.93;;;1.65;;
73779;SDS011;62093;37.614;15.072;2024-03-08T05:54:54;5.25;;;1.80;;
73779;SDS011;62093;37.614;15.072;2024-03-08T05:57:19;4.60;;;1.80;;
73779;SDS011;62093;37.614;15.072;2024-03-08T05:59:48;4.35;;;1.77;;
73779;SDS011;62093;37.614;15.072;2024-03-08T06:02:14;4.25;;;1.90;;
73779;SDS011;62093;37.614;15.072;2024-03-08T06:04:45;4.43;;;1.80;;
73779;SDS011;62093;37.614;15.072;2024-03-08T06:07:12;5.43;;;1.83;;
73779;SDS011;62093;37.614;15.072;2024-03-08T06:09:38;3.97;;;1.63;;
73779;SDS011;62093;37.614;15.072;2024-03-08T06:12:04;4.90;;;1.80;;
73779;SDS011;62093;37.614;15.072;2024-03-08T06:14:32;4.47;;;1.70;;
73779;SDS011;62093;37.614;15.072;2024-03-08T06:16:58;4.93;;;1.90;;
73779;SDS011;62093;37.614;15.072;2024-03-08T06:19:23;4.07;;;1.85;;
73779;SDS011;62093;37.614;15.072;2024-03-08T06:21:49;4.82;;;1.70;;
73779;SDS011;62093;37.614;15.072;2024-03-08T06:24:15;5.53;;;1.90;;
73779;SDS011;62093;37.614;15.072;2024-03-08T06:26:41;4.78;;;1.65;;
73779;SDS011;62093;37.614;15.072;2024-03-08T06:29:08;4.00;;;1.50;;
73779;SDS011;62093;37.614;15.072;2024-03-08T06:31:34;4.25;;;1.58;;
73779;SDS011;62093;37.614;15.072;2024-03-08T06:34:04;4.43;;;1.70;;
73779;SDS011;62093;37.614;15.072;2024-03-08T06:36:33;4.68;;;1.70;;
73779;SDS011;62093;37.614;15.072;2024-03-08T06:38:59;4.38;;;1.60;;
73779;SDS011;62093;37.614;15.072;2024-03-08T06:41:25;3.78;;;1.70;;
73779;SDS011;62093;37.614;15.072;2024-03-08T06:43:52;4.60;;;1.60;;
73779;SDS011;62093;37.614;15.072;2024-03-08T06:46:22;3.40;;;1.45;;
73779;SDS011;62093;37.614;15.072;2024-03-08T06:48:48;4.38;;;1.70;;
73779;SDS011;62093;37.614;15.072;2024-03-08T06:51:17;3.63;;;1.67;;
73779;SDS011;62093;37.614;15.072;2024-03-08T06:53:44;4.13;;;1.27;;
73779;SDS011;62093;37.614;15.072;2024-03-08T06:56:10;3.97;;;1.60;;
73779;SDS011;62093;37.614;15.072;2024-03-08T06:58:36;4.45;;;1.60;;
73779;SDS011;62093;37.614;15.072;2024-03-08T07:01:03;3.92;;;1.75;;
73779;SDS011;62093;37.614;15.072;2024-03-08T07:03:33;4.22;;;1.50;;
73779;SDS011;62093;37.614;15.072;2024-03-08T07:05:59;4.63;;;1.60;;
73779;SDS011;62093;37.614;15.072;2024-03-08T07:08:26;4.50;;;2.00;;
73779;SDS011;62093;37.614;15.072;2024-03-08T07:10:53;3.58;;;1.35;;
73779;SDS011;62093;37.614;15.072;2024-03-08T07:13:19;4.43;;;1.50;;
73779;SDS011;62093;37.614;15.072;2024-03-08T07:15:45;4.30;;;1.65;;
73779;SDS011;62093;37.614;15.072;2024-03-08T07:18:12;3.63;;;1.60;;
73779;SDS011;62093;37.614;15.072;2024-03-08T07:20:41;4.20;;;1.70;;
73779;SDS011;62093;37.614;15.072;2024-03-08T07:23:07;4.53;;;1.67;;
73779;SDS011;62093;37.614;15.072;2024-03-08T07:25:34;3.90;;;1.58;;
73779;SDS011;62093;37.614;15.072;2024-03-08T07:28:00;4.00;;;1.50;;
73779;SDS011;62093;37.614;15.072;2024-03-08T07:30:26;3.90;;;1.52;;
73779;SDS011;62093;37.614;15.072;2024-03-08T07:33:11;4.00;;;1.60;;
73779;SDS011;62093;37.614;15.072;2024-03-08T07:35:38;4.35;;;1.45;;
73779;SDS011;62093;37.614;15.072;2024-03-08T07:38:04;3.78;;;1.50;;
73779;SDS011;62093;37.614;15.072;2024-03-08T07:40:31;4.07;;;1.50;;
73779;SDS011;62093;37.614;15.072;2024-03-08T07:43:00;3.90;;;1.40;;
73779;SDS011;62093;37.614;15.072;2024-03-08T07:45:26;3.50;;;1.40;;
73779;SDS011;62093;37.614;15.072;2024-03-08T07:47:52;4.53;;;1.40;;
73779;SDS011;62093;37.614;15.072;2024-03-08T07:50:19;4.22;;;1.73;;
73779;SDS011;62093;37.614;15.072;2024-03-08T07:52:46;4.15;;;1.77;;
73779;SDS011;62093;37.614;15.072;2024-03-08T07:55:12;3.77;;;1.60;;
73779;SDS011;62093;37.614;15.072;2024-03-08T07:57:38;4.07;;;1.65;;
73779;SDS011;62093;37.614;15.072;2024-03-08T08:00:05;4.40;;;1.85;;
73779;SDS011;62093;37.614;15.072;2024-03-08T08:02:34;4.28;;;1.63;;
73779;SDS011;62093;37.614;15.072;2024-03-08T08:05:01;5.17;;;1.70;;
73779;SDS011;62093;37.614;15.072;2024-03-08T08:07:27;4.05;;;1.55;;
73779;SDS011;62093;37.614;15.072;2024-03-08T08:09:53;3.90;;;1.80;;
73779;SDS011;62093;37.614;15.072;2024-03-08T08:12:19;3.83;;;1.63;;
73779;SDS011;62093;37.614;15.072;2024-03-08T08:14:46;5.03;;;1.80;;
73779;SDS011;62093;37.614;15.072;2024-03-08T08:17:12;3.80;;;1.60;;
73779;SDS011;62093;37.614;15.072;2024-03-08T08:19:40;3.80;;;1.30;;
73779;SDS011;62093;37.614;15.072;2024-03-08T08:22:06;4.03;;;1.38;;
73779;SDS011;62093;37.614;15.072;2024-03-08T08:24:34;4.97;;;1.73;;
73779;SDS011;62093;37.614;15.072;2024-03-08T08:27:02;3.58;;;1.42;;
73779;SDS011;62093;37.614;15.072;2024-03-08T08:29:29;4.37;;;1.43;;
73779;SDS011;62093;37.614;15.072;2024-03-08T08:31:58;3.88;;;1.33;;
73779;SDS011;62093;37.614;15.072;2024-03-08T08:34:24;4.28;;;1.70;;
73779;SDS011;62093;37.614;15.072;2024-03-08T08:36:52;3.72;;;1.45;;
73779;SDS011;62093;37.614;15.072;2024-03-08T08:39:18;4.40;;;1.77;;
73779;SDS011;62093;37.614;15.072;2024-03-08T08:41:44;4.63;;;1.40;;
73779;SDS011;62093;37.614;15.072;2024-03-08T08:44:10;4.03;;;1.73;;
73779;SDS011;62093;37.614;15.072;2024-03-08T08:46:38;3.97;;;1.40;;
73779;SDS011;62093;37.614;15.072;2024-03-08T08:49:04;3.85;;;1.30;;
73779;SDS011;62093;37.614;15.072;2024-03-08T08:51:31;3.70;;;1.27;;
73779;SDS011;62093;37.614;15.072;2024-03-08T08:53:59;3.90;;;1.42;;
73779;SDS011;62093;37.614;15.072;2024-03-08T08:56:25;4.18;;;1.70;;
73779;SDS011;62093;37.614;15.072;2024-03-08T08:58:51;3.80;;;1.50;;
73779;SDS011;62093;37.614;15.072;2024-03-08T09:01:20;3.92;;;1.70;;
73779;SDS011;62093;37.614;15.072;2024-03-08T09:03:46;4.10;;;1.50;;
73779;SDS011;62093;37.614;15.072;2024-03-08T09:06:12;3.90;;;1.55;;
73779;SDS011;62093;37.614;15.072;2024-03-08T09:08:41;3.90;;;1.77;;
73779;SDS011;62093;37.614;15.072;2024-03-08T09:11:07;3.85;;;1.40;;
73779;SDS011;62093;37.614;15.072;2024-03-08T09:13:33;4.20;;;1.47;;
73779;SDS011;62093;37.614;15.072;2024-03-08T09:16:00;4.28;;;1.80;;
73779;SDS011;62093;37.614;15.072;2024-03-08T09:18:27;4.00;;;1.40;;
73779;SDS011;62093;37.614;15.072;2024-03-08T09:20:53;3.60;;;1.27;;
73779;SDS011;62093;37.614;15.072;2024-03-08T09:23:19;4.28;;;1.50;;
73779;SDS011;62093;37.614;15.072;2024-03-08T09:25:45;3.90;;;1.30;;
73779;SDS011;62093;37.614;15.072;2024-03-08T09:28:12;3.70;;;1.50;;
73779;SDS011;62093;37.614;15.072;2024-03-08T09:30:38;4.28;;;1.50;;
73779;SDS011;62093;37.614;15.072;2024-03-08T09:33:05;3.80;;;1.50;;
73779;SDS011;62093;37.614;15.072;2024-03-08T09:35:31;3.58;;;1.50;;
73779;SDS011;62093;37.614;15.072;2024-03-08T09:37:57;4.07;;;1.50;;
73779;SDS011;62093;37.614;15.072;2024-03-08T09:40:23;4.35;;;1.80;;
73779;SDS011;62093;37.614;15.072;2024-03-08T09:42:51;4.97;;;1.65;;
73779;SDS011;62093;37.614;15.072;2024-03-08T09:45:17;3.70;;;1.60;;
73779;SDS011;62093;37.614;15.072;2024-03-08T09:47:47;3.83;;;1.50;;
73779;SDS011;62093;37.614;15.072;2024-03-08T09:50:14;4.45;;;1.67;;
73779;SDS011;62093;37.614;15.072;2024-03-08T09:52:43;3.80;;;1.55;;
73779;SDS011;62093;37.614;15.072;2024-03-08T09:55:12;4.50;;;1.55;;
73779;SDS011;62093;37.614;15.072;2024-03-08T09:57:42;4.20;;;1.67;;
73779;SDS011;62093;37.614;15.072;2024-03-08T10:00:29;4.97;;;1.50;;
73779;SDS011;62093;37.614;15.072;2024-03-08T10:03:00;4.68;;;1.55;;
73779;SDS011;62093;37.614;15.072;2024-03-08T10:05:27;3.97;;;1.58;;
73779;SDS011;62093;37.614;15.072;2024-03-08T10:07:53;4.15;;;1.52;;
73779;SDS011;62093;37.614;15.072;2024-03-08T10:10:19;4.03;;;1.50;;
73779;SDS011;62093;37.614;15.072;2024-03-08T10:12:45;3.80;;;1.53;;
73779;SDS011;62093;37.614;15.072;2024-03-08T10:15:11;5.00;;;1.80;;
73779;SDS011;62093;37.614;15.072;2024-03-08T10:17:42;4.22;;;1.50;;
73779;SDS011;62093;37.614;15.072;2024-03-08T10:20:18;4.20;;;1.70;;
73779;SDS011;62093;37.614;15.072;2024-03-08T10:22:45;3.70;;;1.60;;
73779;SDS011;62093;37.614;15.072;2024-03-08T10:25:11;4.57;;;1.90;;
73779;SDS011;62093;37.614;15.072;2024-03-08T10:27:40;3.92;;;1.65;;
73779;SDS011;62093;37.614;15.072;2024-03-08T10:30:10;4.90;;;2.10;;
73779;SDS011;62093;37.614;15.072;2024-03-08T10:32:38;3.97;;;1.60;;
73779;SDS011;62093;37.614;15.072;2024-03-08T10:35:05;4.25;;;1.70;;
73779;SDS011;62093;37.614;15.072;2024-03-08T10:37:33;4.10;;;1.60;;
73779;SDS011;62093;37.614;15.072;2024-03-08T10:40:07;4.32;;;1.90;;
73779;SDS011;62093;37.614;15.072;2024-03-08T10:42:44;4.28;;;1.60;;
73779;SDS011;62093;37.614;15.072;2024-03-08T10:50:59;3.93;;;1.50;;
73779;SDS011;62093;37.614;15.072;2024-03-08T10:53:31;4.35;;;1.92;;
73779;SDS011;62093;37.614;15.072;2024-03-08T10:55:59;4.10;;;1.70;;
73779;SDS011;62093;37.614;15.072;2024-03-08T10:58:27;4.45;;;1.55;;
73779;SDS011;62093;37.614;15.072;2024-03-08T11:00:55;3.92;;;1.65;;
73779;SDS011;62093;37.614;15.072;2024-03-08T11:06:16;4.20;;;1.90;;
73779;SDS011;62093;37.614;15.072;2024-03-08T11:08:44;4.68;;;1.80;;
73779;SDS011;62093;37.614;15.072;2024-03-08T11:11:27;3.55;;;1.55;;
73779;SDS011;62093;37.614;15.072;2024-03-08T11:13:58;4.03;;;1.70;;
73779;SDS011;62093;37.614;15.072;2024-03-08T11:18:53;4.57;;;1.98;;
73779;SDS011;62093;37.614;15.072;2024-03-08T11:21:19;4.78;;;1.90;;
73779;SDS011;62093;37.614;15.072;2024-03-08T11:24:01;4.95;;;1.80;;
73779;SDS011;62093;37.614;15.072;2024-03-08T11:26:31;4.50;;;1.87;;
73779;SDS011;62093;37.614;15.072;2024-03-08T11:32:04;4.30;;;1.70;;
73779;SDS011;62093;37.614;15.072;2024-03-08T11:34:34;4.68;;;1.80;;
73779;SDS011;62093;37.614;15.072;2024-03-08T11:37:00;4.63;;;1.70;;
73779;SDS011;62093;37.614;15.072;2024-03-08T11:39:26;4.77;;;1.70;;
73779;SDS011;62093;37.614;15.072;2024-03-08T11:41:54;4.65;;;1.77;;
73779;SDS011;62093;37.614;15.072;2024-03-08T11:44:21;4.75;;;1.70;;
73779;SDS011;62093;37.614;15.072;2024-03-08T11:46:47;4.70;;;1.65;;
73779;SDS011;62093;37.614;15.072;2024-03-08T11:49:13;4.30;;;1.80;;
73779;SDS011;62093;37.614;15.072;2024-03-08T11:51:40;5.43;;;1.80;;
73779;SDS011;62093;37.614;15.072;2024-03-08T11:54:10;5.07;;;1.70;;
73779;SDS011;62093;37.614;15.072;2024-03-08T11:56:38;4.20;;;1.70;;
73779;SDS011;62093;37.614;15.072;2024-03-08T11:59:10;4.20;;;1.77;;
73779;SDS011;62093;37.614;15.072;2024-03-08T12:01:40;4.50;;;1.80;;
73779;SDS011;62093;37.614;15.072;2024-03-08T12:04:06;5.10;;;1.73;;
73779;SDS011;62093;37.614;15.072;2024-03-08T12:06:38;4.18;;;1.88;;
73779;SDS011;62093;37.614;15.072;2024-03-08T12:09:10;3.85;;;1.40;;
73779;SDS011;62093;37.614;15.072;2024-03-08T12:11:38;4.50;;;1.80;;
73779;SDS011;62093;37.614;15.072;2024-03-08T12:14:04;4.82;;;2.15;;
73779;SDS011;62093;37.614;15.072;2024-03-08T12:16:32;4.40;;;1.77;;
73779;SDS011;62093;37.614;15.072;2024-03-08T12:18:58;4.28;;;1.63;;
73779;SDS011;62093;37.614;15.072;2024-03-08T12:21:25;4.82;;;1.88;;
73779;SDS011;62093;37.614;15.072;2024-03-08T12:26:36;4.60;;;1.65;;
73779;SDS011;62093;37.614;15.072;2024-03-08T12:29:16;4.23;;;1.63;;
73779;SDS011;62093;37.614;15.072;2024-03-08T12:31:49;4.55;;;1.67;;
73779;SDS011;62093;37.614;15.072;2024-03-08T12:34:20;4.53;;;1.80;;
73779;SDS011;62093;37.614;15.072;2024-03-08T12:36:47;5.15;;;1.85;;
73779;SDS011;62093;37.614;15.072;2024-03-08T12:39:20;4.15;;;1.75;;
73779;SDS011;62093;37.614;15.072;2024-03-08T12:41:53;3.97;;;1.60;;
73779;SDS011;62093;37.614;15.072;2024-03-08T12:44:20;4.57;;;1.55;;
73779;SDS011;62093;37.614;15.072;2024-03-08T12:46:50;5.10;;;1.67;;
73779;SDS011;62093;37.614;15.072;2024-03-08T12:49:17;4.50;;;1.73;;
73779;SDS011;62093;37.614;15.072;2024-03-08T12:51:43;3.88;;;1.58;;
73779;SDS011;62093;37.614;15.072;2024-03-08T12:54:10;5.83;;;1.80;;
73779;SDS011;62093;37.614;15.072;2024-03-08T12:56:36;4.72;;;1.80;;
73779;SDS011;62093;37.614;15.072;2024-03-08T12:59:03;4.30;;;1.70;;
73779;SDS011;62093;37.614;15.072;2024-03-08T13:01:30;4.47;;;1.90;;
73779;SDS011;62093;37.614;15.072;2024-03-08T13:03:58;4.07;;;1.83;;
73779;SDS011;62093;37.614;15.072;2024-03-08T13:06:24;3.70;;;1.60;;
73779;SDS011;62093;37.614;15.072;2024-03-08T13:08:50;3.90;;;1.67;;
73779;SDS011;62093;37.614;15.072;2024-03-08T13:11:23;4.45;;;1.70;;
73779;SDS011;62093;37.614;15.072;2024-03-08T13:13:50;3.80;;;1.90;;
73779;SDS011;62093;37.614;15.072;2024-03-08T13:16:18;4.05;;;1.90;;
73779;SDS011;62093;37.614;15.072;2024-03-08T13:18:45;3.70;;;1.63;;
73779;SDS011;62093;37.614;15.072;2024-03-08T13:21:15;4.75;;;1.90;;
73779;SDS011;62093;37.614;15.072;2024-03-08T13:23:44;4.72;;;1.98;;
73779;SDS011;62093;37.614;15.072;2024-03-08T13:26:15;4.53;;;2.00;;
73779;SDS011;62093;37.614;15.072;2024-03-08T13:28:42;4.18;;;1.83;;
73779;SDS011;62093;37.614;15.072;2024-03-08T13:31:11;4.63;;;1.63;;
73779;SDS011;62093;37.614;15.072;2024-03-08T13:33:37;4.13;;;2.00;;
73779;SDS011;62093;37.614;15.072;2024-03-08T13:36:12;4.43;;;2.10;;
73779;SDS011;62093;37.614;15.072;2024-03-08T13:38:45;4.50;;;1.90;;
73779;SDS011;62093;37.614;15.072;2024-03-08T13:41:14;4.40;;;1.90;;
73779;SDS011;62093;37.614;15.072;2024-03-08T13:43:46;4.30;;;1.70;;
73779;SDS011;62093;37.614;15.072;2024-03-08T13:46:16;4.10;;;1.70;;
73779;SDS011;62093;37.614;15.072;2024-03-08T13:48:43;3.70;;;1.50;;
73779;SDS011;62093;37.614;15.072;2024-03-08T13:51:09;4.15;;;1.67;;
73779;SDS011;62093;37.614;15.072;2024-03-08T13:53:41;5.07;;;1.95;;
73779;SDS011;62093;37.614;15.072;2024-03-08T13:56:07;4.37;;;1.90;;
73779;SDS011;62093;37.614;15.072;2024-03-08T13:58:37;4.20;;;1.80;;
73779;SDS011;62093;37.614;15.072;2024-03-08T14:01:07;4.65;;;1.60;;
73779;SDS011;62093;37.614;15.072;2024-03-08T14:03:37;4.32;;;1.73;;
73779;SDS011;62093;37.614;15.072;2024-03-08T14:06:08;3.95;;;1.73;;
73779;SDS011;62093;37.614;15.072;2024-03-08T14:08:38;4.47;;;1.80;;
73779;SDS011;62093;37.614;15.072;2024-03-08T14:11:06;4.10;;;1.73;;
73779;SDS011;62093;37.614;15.072;2024-03-08T14:13:45;4.70;;;1.80;;
73779;SDS011;62093;37.614;15.072;2024-03-08T14:16:12;4.20;;;1.58;;
73779;SDS011;62093;37.614;15.072;2024-03-08T14:18:39;4.65;;;1.75;;
73779;SDS011;62093;37.614;15.072;2024-03-08T14:21:05;4.73;;;1.50;;
73779;SDS011;62093;37.614;15.072;2024-03-08T14:23:32;4.93;;;1.65;;
73779;SDS011;62093;37.614;15.072;2024-03-08T14:25:58;3.75;;;1.70;;
73779;SDS011;62093;37.614;15.072;2024-03-08T14:28:25;4.88;;;1.83;;
73779;SDS011;62093;37.614;15.072;2024-03-08T14:30:54;4.97;;;2.23;;
73779;SDS011;62093;37.614;15.072;2024-03-08T14:33:20;4.63;;;1.90;;
73779;SDS011;62093;37.614;15.072;2024-03-08T14:35:46;4.78;;;1.98;;
73779;SDS011;62093;37.614;15.072;2024-03-08T14:38:12;4.03;;;1.63;;
73779;SDS011;62093;37.614;15.072;2024-03-08T14:40:39;3.80;;;1.80;;
73779;SDS011;62093;37.614;15.072;2024-03-08T14:43:06;4.32;;;1.80;;
73779;SDS011;62093;37.614;15.072;2024-03-08T14:45:32;3.95;;;1.70;;
73779;SDS011;62093;37.614;15.072;2024-03-08T14:47:58;4.27;;;2.03;;
73779;SDS011;62093;37.614;15.072;2024-03-08T14:50:25;4.07;;;2.10;;
73779;SDS011;62093;37.614;15.072;2024-03-08T14:52:51;5.07;;;2.20;;